createdAt,value
2023-01-08T00:01:59.702Z,22.26
2023-01-08T00:04:31.724Z,22.27
2023-01-08T00:07:01.348Z,22.28
2023-01-08T00:09:33.080Z,22.28
2023-01-08T00:12:03.432Z,22.28
2023-01-08T00:14:34.100Z,22.30
2023-01-08T00:17:04.878Z,22.28
2023-01-08T00:19:37.241Z,22.29
2023-01-08T00:22:07.268Z,22.29
2023-01-08T00:24:37.662Z,22.29
2023-01-08T00:27:07.523Z,22.30
2023-01-08T00:29:37.865Z,22.29
2023-01-08T00:32:08.396Z,22.29
2023-01-08T00:34:40.713Z,22.27
2023-01-08T00:37:10.824Z,22.21
2023-01-08T00:39:41.419Z,22.15
2023-01-08T00:42:11.644Z,22.07
2023-01-08T00:44:42.014Z,22.01
2023-01-08T00:47:12.367Z,21.98
2023-01-08T00:49:44.721Z,21.97
2023-01-08T00:52:15.761Z,21.96
2023-01-08T00:54:45.431Z,21.97
2023-01-08T00:57:15.794Z,21.98
2023-01-08T00:59:46.016Z,21.99
2023-01-08T01:02:16.670Z,22.00
2023-01-08T01:04:48.984Z,22.00
2023-01-08T01:07:19.330Z,22.01
2023-01-08T01:09:49.341Z,22.00
2023-01-08T01:12:19.611Z,22.01
2023-01-08T01:14:49.439Z,21.99
2023-01-08T01:17:20.255Z,21.99
2023-01-08T01:19:52.302Z,21.99
2023-01-08T01:22:22.232Z,21.96
2023-01-08T01:24:52.163Z,21.96
2023-01-08T01:27:22.399Z,21.93
2023-01-08T01:29:52.481Z,21.88
2023-01-08T01:32:22.767Z,21.84
2023-01-08T01:34:54.764Z,21.80
2023-01-08T01:37:25.200Z,21.78
2023-01-08T01:39:56.626Z,21.75
2023-01-08T01:42:42.168Z,21.74
2023-01-08T01:45:23.906Z,21.73
2023-01-08T01:48:02.348Z,21.71
2023-01-08T01:50:41.217Z,21.71
2023-01-08T01:53:17.446Z,21.71
2023-01-08T01:55:49.163Z,21.68
2023-01-08T01:58:26.093Z,21.69
2023-01-08T02:00:59.549Z,21.69
2023-01-08T02:03:33.565Z,21.71
2023-01-08T02:06:19.945Z,21.73
2023-01-08T02:09:03.848Z,21.73
2023-01-08T02:11:49.115Z,21.74
2023-01-08T02:14:29.280Z,21.73
2023-01-08T02:17:04.840Z,21.74
2023-01-08T02:19:48.861Z,21.74
2023-01-08T02:22:40.704Z,21.75
2023-01-08T02:25:24.428Z,21.76
2023-01-08T02:28:02.783Z,21.74
2023-01-08T02:30:33.877Z,21.72
2023-01-08T02:33:03.926Z,21.68
2023-01-08T02:35:43.796Z,21.65
2023-01-08T02:38:18.572Z,21.61
2023-01-08T02:41:01.326Z,21.57
2023-01-08T02:43:42.528Z,21.52
2023-01-08T02:46:19.513Z,21.50
2023-01-08T02:48:56.487Z,21.47
2023-01-08T02:51:33.767Z,21.46
2023-01-08T02:54:10.650Z,21.46
2023-01-08T02:56:47.262Z,21.46
2023-01-08T02:59:23.078Z,21.46
2023-01-08T03:01:54.804Z,21.47
2023-01-08T03:04:28.672Z,21.48
2023-01-08T03:06:59.914Z,21.50
2023-01-08T03:09:30.458Z,21.52
2023-01-08T03:12:08.247Z,21.52
2023-01-08T03:14:49.307Z,21.53
2023-01-08T03:17:26.598Z,21.54
2023-01-08T03:20:02.578Z,21.53
2023-01-08T03:22:35.526Z,21.51
2023-01-08T03:25:08.732Z,21.50
2023-01-08T03:27:48.138Z,21.48
2023-01-08T03:30:23.200Z,21.44
2023-01-08T03:32:57.501Z,21.41
2023-01-08T03:35:30.515Z,21.39
2023-01-08T03:38:10.758Z,21.38
2023-01-08T03:40:48.063Z,21.38
2023-01-08T03:43:18.875Z,21.38
2023-01-08T03:45:57.872Z,21.37
2023-01-08T03:48:30.759Z,21.38
2023-01-08T03:51:01.707Z,21.38
2023-01-08T03:56:02.092Z,21.34
2023-01-08T03:58:32.423Z,21.29
2023-01-08T04:01:04.785Z,21.21
2023-01-08T04:03:34.530Z,21.12
2023-01-08T04:06:04.618Z,21.06
2023-01-08T04:08:34.909Z,20.97
2023-01-08T04:11:05.272Z,20.89
2023-01-08T04:13:35.063Z,20.82
2023-01-08T04:16:08.639Z,20.76
2023-01-08T04:18:39.057Z,20.69
2023-01-08T04:21:09.528Z,20.65
2023-01-08T04:23:39.955Z,20.61
2023-01-08T04:26:11.002Z,20.60
2023-01-08T04:28:41.853Z,20.60
2023-01-08T04:31:13.938Z,20.61
2023-01-08T04:33:44.163Z,20.63
2023-01-08T04:36:14.163Z,20.63
2023-01-08T04:38:44.773Z,20.66
2023-01-08T04:41:15.848Z,20.69
2023-01-08T04:43:46.170Z,20.71
2023-01-08T04:46:18.034Z,20.74
2023-01-08T04:48:48.485Z,20.74
2023-01-08T04:51:19.034Z,20.77
2023-01-08T04:53:49.393Z,20.78
2023-01-08T04:56:19.906Z,20.80
2023-01-08T04:58:50.242Z,20.82
2023-01-08T05:01:24.208Z,20.84
2023-01-08T05:03:58.067Z,20.85
2023-01-08T05:06:30.482Z,20.85
2023-01-08T05:09:01.510Z,20.86
2023-01-08T05:11:31.760Z,20.87
2023-01-08T05:14:02.082Z,20.86
2023-01-08T05:16:33.942Z,20.88
2023-01-08T05:19:04.364Z,20.86
2023-01-08T05:21:35.006Z,20.87
2023-01-08T05:24:05.298Z,20.88
2023-01-08T05:26:36.337Z,20.89
2023-01-08T05:29:06.404Z,20.91
2023-01-08T05:31:38.780Z,20.93
2023-01-08T05:34:09.135Z,20.97
2023-01-08T05:36:39.381Z,21.00
2023-01-08T05:39:10.025Z,21.02
2023-01-08T05:41:40.342Z,21.05
2023-01-08T05:44:10.651Z,21.07
2023-01-08T05:46:42.519Z,21.08
2023-01-08T05:49:12.957Z,21.08
2023-01-08T05:51:43.123Z,21.10
2023-01-08T05:54:13.823Z,21.12
2023-01-08T05:56:44.859Z,21.12
2023-01-08T05:59:15.872Z,21.14
2023-01-08T06:01:48.828Z,21.17
2023-01-08T06:04:19.377Z,21.20
2023-01-08T06:06:49.309Z,21.24
2023-01-08T06:09:20.421Z,21.28
2023-01-08T06:11:50.469Z,21.31
2023-01-08T06:16:52.626Z,21.47
2023-01-08T06:19:23.174Z,21.58
2023-01-08T06:21:53.588Z,21.80
2023-01-08T06:24:23.357Z,22.03
2023-01-08T06:26:53.281Z,22.31
2023-01-08T06:29:23.187Z,22.61
2023-01-08T06:31:54.996Z,22.90
2023-01-08T06:34:24.937Z,23.20
2023-01-08T06:36:55.069Z,23.48
2023-01-08T06:39:25.099Z,23.76
2023-01-08T06:41:55.462Z,24.03
2023-01-08T06:44:25.858Z,24.28
2023-01-08T06:46:57.434Z,24.50
2023-01-08T06:49:27.837Z,24.72
2023-01-08T06:51:58.012Z,24.95
2023-01-08T06:54:28.013Z,25.17
2023-01-08T06:56:58.311Z,25.39
2023-01-08T06:59:28.117Z,25.63
2023-01-08T07:02:00.069Z,25.88
2023-01-08T07:04:30.507Z,26.10
2023-01-08T07:07:00.709Z,26.30
2023-01-08T07:09:30.983Z,26.50
2023-01-08T07:12:01.305Z,26.64
2023-01-08T07:14:31.835Z,26.74
2023-01-08T07:17:04.245Z,26.86
2023-01-08T07:19:34.615Z,27.01
2023-01-08T07:22:04.648Z,27.19
2023-01-08T07:24:34.953Z,27.36
2023-01-08T07:27:05.970Z,27.52
2023-01-08T07:29:36.398Z,27.65
2023-01-08T07:32:08.941Z,27.79
2023-01-08T07:34:39.014Z,27.90
2023-01-08T07:37:09.453Z,28.02
2023-01-08T07:39:39.771Z,28.16
2023-01-08T07:42:09.601Z,28.28
2023-01-08T07:44:39.908Z,28.44
2023-01-08T07:47:12.403Z,28.65
2023-01-08T07:49:42.654Z,28.84
2023-01-08T07:52:12.419Z,29.06
2023-01-08T07:54:42.774Z,29.24
2023-01-08T07:57:12.902Z,29.45
2023-01-08T07:59:43.268Z,29.68
2023-01-08T08:02:15.495Z,29.89
2023-01-08T08:04:45.596Z,30.09
2023-01-08T08:07:15.318Z,30.21
2023-01-08T08:09:45.526Z,30.39
2023-01-08T08:12:16.320Z,30.60
2023-01-08T08:14:46.677Z,30.85
2023-01-08T08:17:18.673Z,31.10
2023-01-08T08:19:48.862Z,31.36
2023-01-08T08:22:18.629Z,31.61
2023-01-08T08:24:48.958Z,31.84
2023-01-08T08:27:19.034Z,32.07
2023-01-08T08:29:49.248Z,32.29
2023-01-08T08:32:22.177Z,32.55
2023-01-08T08:34:52.697Z,32.78
2023-01-08T08:37:23.103Z,33.01
2023-01-08T08:39:53.484Z,33.26
2023-01-08T08:42:23.772Z,33.50
2023-01-08T08:44:53.559Z,33.74
2023-01-08T08:47:26.232Z,33.98
2023-01-08T08:49:56.448Z,34.22
2023-01-08T08:52:26.892Z,34.45
2023-01-08T08:54:56.935Z,34.60
2023-01-08T08:57:27.386Z,34.60
2023-01-08T08:59:59.758Z,34.50
2023-01-08T09:02:33.492Z,34.34
2023-01-08T09:05:04.060Z,34.11
2023-01-08T09:07:34.184Z,33.91
2023-01-08T09:10:05.133Z,33.68
2023-01-08T09:12:35.566Z,33.45
2023-01-08T09:15:06.382Z,33.20
2023-01-08T09:17:38.806Z,32.88
2023-01-08T09:20:10.411Z,32.59
2023-01-08T09:22:40.872Z,32.31
2023-01-08T09:25:13.815Z,32.08
2023-01-08T09:27:44.057Z,31.87
2023-01-08T09:30:15.093Z,31.67
2023-01-08T09:32:46.823Z,31.45
2023-01-08T09:35:17.235Z,31.27
2023-01-08T09:37:47.551Z,31.13
2023-01-08T09:40:19.741Z,31.03
2023-01-08T09:42:58.600Z,30.97
2023-01-08T09:45:33.595Z,30.92
2023-01-08T09:48:14.170Z,30.86
2023-01-08T09:50:44.700Z,30.78
2023-01-08T09:53:19.100Z,30.72
2023-01-08T09:56:09.294Z,30.65
2023-01-08T09:58:46.179Z,30.52
2023-01-08T10:01:20.373Z,30.42
2023-01-08T10:03:58.404Z,30.31
2023-01-08T10:06:28.173Z,30.18
2023-01-08T10:08:58.611Z,30.07
2023-01-08T10:11:35.871Z,29.91
2023-01-08T10:14:07.575Z,29.75
2023-01-08T10:16:42.495Z,29.59
2023-01-08T10:19:15.095Z,29.46
2023-01-08T10:21:45.685Z,29.34
2023-01-08T10:24:15.954Z,29.24
2023-01-08T10:26:48.224Z,29.16
2023-01-08T10:29:21.788Z,29.06
2023-01-08T10:31:55.756Z,28.96
2023-01-08T10:34:42.212Z,28.90
2023-01-08T10:37:25.401Z,28.82
2023-01-08T10:40:05.976Z,28.76
2023-01-08T10:42:39.236Z,28.71
2023-01-08T10:45:23.110Z,28.65
2023-01-08T10:47:59.265Z,28.60
2023-01-08T10:50:34.189Z,28.56
2023-01-08T10:53:06.666Z,28.50
2023-01-08T10:55:40.004Z,28.44
2023-01-08T10:58:17.951Z,28.39
2023-01-08T11:00:48.977Z,28.33
2023-01-08T11:03:31.597Z,28.24
2023-01-08T11:06:13.802Z,28.16
2023-01-08T11:08:55.408Z,28.06
2023-01-08T11:11:26.872Z,27.99
2023-01-08T11:14:02.750Z,27.93
2023-01-08T11:16:40.200Z,27.88
2023-01-08T11:19:21.663Z,27.82
2023-01-08T11:22:02.676Z,27.77
2023-01-08T11:24:37.624Z,27.71
2023-01-08T11:27:18.227Z,27.67
2023-01-08T11:29:59.258Z,27.62
2023-01-08T11:32:44.932Z,27.57
2023-01-08T11:35:21.598Z,27.51
2023-01-08T11:37:59.765Z,27.47
2023-01-08T11:40:42.044Z,27.41
2023-01-08T11:43:38.763Z,27.35
2023-01-08T11:46:33.178Z,27.27
2023-01-08T11:49:51.514Z,27.17
2023-01-08T11:52:47.725Z,27.10
2023-01-08T11:55:40.849Z,27.06
2023-01-08T11:58:36.184Z,27.02
2023-01-08T12:01:35.867Z,26.97
2023-01-08T12:04:55.185Z,26.92
2023-01-08T12:07:39.612Z,26.86
2023-01-08T12:10:26.940Z,26.79
2023-01-08T12:13:17.231Z,26.71
2023-01-08T12:16:04.777Z,26.66
2023-01-08T12:19:10.034Z,26.59
2023-01-08T12:21:56.770Z,26.55
2023-01-08T12:25:04.881Z,26.52
2023-01-08T12:27:57.267Z,26.48
2023-01-08T12:30:45.397Z,26.42
2023-01-08T12:33:29.500Z,26.38
2023-01-08T12:36:06.871Z,26.34
2023-01-08T12:38:43.651Z,26.31
2023-01-08T12:41:16.576Z,26.28
2023-01-08T12:43:58.458Z,26.24
2023-01-08T12:46:35.309Z,26.19
2023-01-08T12:49:09.248Z,26.13
2023-01-08T12:51:51.075Z,26.10
2023-01-08T12:54:33.841Z,26.07
2023-01-08T12:57:14.786Z,26.03
2023-01-08T12:59:57.015Z,26.02
2023-01-08T13:02:46.905Z,25.99
2023-01-08T13:05:33.376Z,25.97
2023-01-08T13:08:09.575Z,25.94
2023-01-08T13:10:50.895Z,25.93
2023-01-08T13:13:32.489Z,25.91
2023-01-08T13:16:23.020Z,25.90
2023-01-08T13:18:59.949Z,25.86
2023-01-08T13:21:40.107Z,25.82
2023-01-08T13:24:31.298Z,25.79
2023-01-08T13:27:25.748Z,25.76
2023-01-08T13:29:58.466Z,25.74
2023-01-08T13:32:47.665Z,25.73
2023-01-08T13:35:27.171Z,25.73
2023-01-08T13:38:16.198Z,25.70
2023-01-08T13:40:59.124Z,25.64
2023-01-08T13:43:38.042Z,25.60
2023-01-08T13:46:19.874Z,25.57
2023-01-08T13:49:04.248Z,25.54
2023-01-08T13:51:44.082Z,25.50
2023-01-08T13:54:37.833Z,25.46
2023-01-08T13:57:18.490Z,25.42
2023-01-08T13:59:57.704Z,25.40
2023-01-08T14:02:32.670Z,25.38
2023-01-08T14:05:15.012Z,25.37
2023-01-08T14:07:45.921Z,25.36
2023-01-08T14:10:18.588Z,25.36
2023-01-08T14:12:50.258Z,25.34
2023-01-08T14:15:31.591Z,25.34
2023-01-08T14:18:05.002Z,25.32
2023-01-08T14:20:41.321Z,25.31
2023-01-08T14:23:22.076Z,25.30
2023-01-08T14:25:53.479Z,25.28
2023-01-08T14:28:25.731Z,25.27
2023-01-08T14:30:59.480Z,25.27
2023-01-08T14:33:36.576Z,25.26
2023-01-08T14:36:11.941Z,25.24
2023-01-08T14:38:42.852Z,25.22
2023-01-08T14:41:16.952Z,25.22
2023-01-08T14:43:50.268Z,25.19
2023-01-08T14:46:28.776Z,25.18
2023-01-08T14:49:00.088Z,25.15
2023-01-08T14:51:34.613Z,25.12
2023-01-08T14:54:09.846Z,25.10
2023-01-08T14:56:40.593Z,25.09
2023-01-08T14:59:13.725Z,25.08
2023-01-08T15:01:56.972Z,25.06
2023-01-08T15:04:27.872Z,25.04
2023-01-08T15:07:11.269Z,25.03
2023-01-08T15:09:41.831Z,25.01
2023-01-08T15:12:27.699Z,24.98
2023-01-08T15:14:57.921Z,24.95
2023-01-08T15:17:32.080Z,24.94
2023-01-08T15:20:03.460Z,24.91
2023-01-08T15:22:36.750Z,24.89
2023-01-08T15:25:11.283Z,24.87
2023-01-08T15:27:41.367Z,24.83
2023-01-08T15:30:31.720Z,24.82
2023-01-08T15:33:12.613Z,24.79
2023-01-08T15:35:42.869Z,24.76
2023-01-08T15:38:15.390Z,24.76
2023-01-08T15:40:47.635Z,24.74
2023-01-08T15:43:18.835Z,24.72
2023-01-08T15:45:52.210Z,24.71
2023-01-08T15:48:22.909Z,24.68
2023-01-08T15:50:53.820Z,24.66
2023-01-08T15:53:26.177Z,24.64
2023-01-08T15:55:56.278Z,24.62
2023-01-08T15:58:26.697Z,24.62
2023-01-08T16:00:57.234Z,24.60
2023-01-08T16:03:27.914Z,24.57
2023-01-08T16:05:58.490Z,24.55
2023-01-08T16:08:30.641Z,24.54
2023-01-08T16:11:00.583Z,24.51
2023-01-08T16:13:31.501Z,24.50
2023-01-08T16:16:01.699Z,24.49
2023-01-08T16:18:32.821Z,24.46
2023-01-08T16:21:04.263Z,24.45
2023-01-08T16:23:37.227Z,24.43
2023-01-08T16:26:09.490Z,24.42
2023-01-08T16:28:39.890Z,24.40
2023-01-08T16:31:11.627Z,24.39
2023-01-08T16:33:41.776Z,24.38
2023-01-08T16:36:13.515Z,24.37
2023-01-08T16:38:45.861Z,24.37
2023-01-08T16:41:15.630Z,24.34
2023-01-08T16:43:45.798Z,24.34
2023-01-08T16:46:18.561Z,24.33
2023-01-08T16:48:49.019Z,24.32
2023-01-08T16:51:21.688Z,24.31
2023-01-08T16:53:54.266Z,24.31
2023-01-08T16:56:24.850Z,24.30
2023-01-08T16:58:55.062Z,24.28
2023-01-08T17:01:25.603Z,24.28
2023-01-08T17:03:56.694Z,24.27
2023-01-08T17:06:27.618Z,24.26
2023-01-08T17:09:01.963Z,24.24
2023-01-08T17:11:32.617Z,24.25
2023-01-08T17:14:03.957Z,24.22
2023-01-08T17:16:34.678Z,24.20
2023-01-08T17:19:05.018Z,24.19
2023-01-08T17:21:36.502Z,24.18
2023-01-08T17:24:10.212Z,24.17
2023-01-08T17:26:40.641Z,24.16
2023-01-08T17:29:11.175Z,24.15
2023-01-08T17:31:44.383Z,24.15
2023-01-08T17:34:16.132Z,24.14
2023-01-08T17:36:46.491Z,24.14
2023-01-08T17:39:18.113Z,24.12
2023-01-08T17:42:06.011Z,24.12
2023-01-08T17:44:36.768Z,24.10
2023-01-08T17:47:07.369Z,24.10
2023-01-08T17:49:37.913Z,24.09
2023-01-08T17:52:10.188Z,24.08
2023-01-08T17:54:42.612Z,24.09
2023-01-08T17:57:14.058Z,24.07
2023-01-08T17:59:44.599Z,24.06
2023-01-08T18:02:16.760Z,24.06
2023-01-08T18:04:47.895Z,24.05
2023-01-08T18:07:18.904Z,24.04
2023-01-08T18:09:53.241Z,24.04
2023-01-08T18:12:23.695Z,24.02
2023-01-08T18:14:54.155Z,24.01
2023-01-08T18:17:24.794Z,24.01
2023-01-08T18:19:55.532Z,24.01
2023-01-08T18:22:26.459Z,24.00
2023-01-08T18:24:58.598Z,23.99
2023-01-08T18:27:29.393Z,23.98
2023-01-08T18:30:03.023Z,23.97
2023-01-08T18:32:33.635Z,23.96
2023-01-08T18:35:04.928Z,23.96
2023-01-08T18:37:36.343Z,23.96
2023-01-08T18:40:09.898Z,23.93
2023-01-08T18:42:39.957Z,23.94
2023-01-08T18:45:12.012Z,23.94
2023-01-08T18:47:42.429Z,23.91
2023-01-08T18:50:13.766Z,23.91
2023-01-08T18:52:43.791Z,23.90
2023-01-08T18:55:16.041Z,23.89
2023-01-08T18:57:47.762Z,23.88
2023-01-08T19:00:19.011Z,23.87
2023-01-08T19:02:49.639Z,23.87
2023-01-08T19:05:20.425Z,23.86
2023-01-08T19:07:53.804Z,23.85
2023-01-08T19:10:27.476Z,23.86
2023-01-08T19:12:59.531Z,23.84
2023-01-08T19:15:30.303Z,23.83
2023-01-08T19:18:00.991Z,23.83
2023-01-08T19:20:31.856Z,23.83
2023-01-08T19:23:03.603Z,23.83
2023-01-08T19:25:37.642Z,23.83
2023-01-08T19:28:09.493Z,23.81
2023-01-08T19:30:40.842Z,23.80
2023-01-08T19:33:12.767Z,23.79
2023-01-08T19:35:44.563Z,23.78
2023-01-08T19:38:14.710Z,23.78
2023-01-08T19:40:47.191Z,23.77
2023-01-08T19:43:33.970Z,23.74
2023-01-08T19:46:08.282Z,23.71
2023-01-08T19:48:40.668Z,23.67
2023-01-08T19:51:12.669Z,23.65
2023-01-08T19:53:43.931Z,23.61
2023-01-08T19:56:18.513Z,23.56
2023-01-08T19:58:48.921Z,23.53
2023-01-08T20:01:21.331Z,23.50
2023-01-08T20:03:53.471Z,23.47
2023-01-08T20:06:28.825Z,23.44
2023-01-08T20:09:03.399Z,23.42
2023-01-08T20:11:35.571Z,23.43
2023-01-08T20:14:06.236Z,23.43
2023-01-08T20:16:37.068Z,23.44
2023-01-08T20:19:07.168Z,23.45
2023-01-08T20:21:37.937Z,23.46
2023-01-08T20:24:13.481Z,23.46
2023-01-08T20:26:47.623Z,23.47
2023-01-08T20:29:19.886Z,23.47
2023-01-08T20:32:03.919Z,23.46
2023-01-08T20:34:34.274Z,23.42
2023-01-08T20:37:06.406Z,23.40
2023-01-08T20:39:36.375Z,23.36
2023-01-08T20:42:10.113Z,23.35
2023-01-08T20:44:40.965Z,23.33
2023-01-08T20:47:11.570Z,23.33
2023-01-08T20:49:42.045Z,23.34
2023-01-08T20:52:11.836Z,23.35
2023-01-08T20:54:42.971Z,23.37
2023-01-08T20:57:15.305Z,23.38
2023-01-08T20:59:45.939Z,23.39
2023-01-08T21:02:16.048Z,23.38
2023-01-08T21:04:47.962Z,23.37
2023-01-08T21:07:18.598Z,23.36
2023-01-08T21:09:48.503Z,23.35
2023-01-08T21:12:21.000Z,23.35
2023-01-08T21:14:51.765Z,23.35
2023-01-08T21:17:22.118Z,23.33
2023-01-08T21:19:52.415Z,23.33
2023-01-08T21:22:22.556Z,23.31
2023-01-08T21:24:53.115Z,23.32
2023-01-08T21:27:26.664Z,23.31
2023-01-08T21:29:58.151Z,23.30
2023-01-08T21:32:29.147Z,23.30
2023-01-08T21:34:59.339Z,23.30
2023-01-08T21:37:31.800Z,23.30
2023-01-08T21:40:02.134Z,23.30
2023-01-08T21:42:50.832Z,23.30
2023-01-08T21:45:27.878Z,23.27
2023-01-08T21:47:59.870Z,23.27
2023-01-08T21:50:30.602Z,23.25
2023-01-08T21:53:18.025Z,23.23
2023-01-08T21:55:48.544Z,23.20
2023-01-08T21:58:22.567Z,23.17
2023-01-08T22:00:53.045Z,23.13
2023-01-08T22:03:23.511Z,23.09
2023-01-08T22:06:11.225Z,23.04
2023-01-08T22:08:41.407Z,22.98
2023-01-08T22:11:12.326Z,22.94
2023-01-08T22:13:44.543Z,22.91
2023-01-08T22:16:15.677Z,22.88
2023-01-08T22:18:46.225Z,22.87
2023-01-08T22:21:17.201Z,22.85
2023-01-08T22:23:47.591Z,22.83
2023-01-08T22:26:20.593Z,22.82
2023-01-08T22:28:53.181Z,22.81
2023-01-08T22:31:24.150Z,22.81
2023-01-08T22:33:56.212Z,22.83
2023-01-08T22:36:26.981Z,22.85
2023-01-08T22:38:56.773Z,22.87
2023-01-08T22:41:28.065Z,22.90
2023-01-08T22:44:00.647Z,22.91
2023-01-08T22:46:32.717Z,22.93
2023-01-08T22:49:02.653Z,22.93
2023-01-08T22:51:33.301Z,22.94
2023-01-08T22:54:03.695Z,22.96
2023-01-08T22:56:34.508Z,22.97
2023-01-08T22:59:07.330Z,22.98
2023-01-08T23:01:38.003Z,22.97
2023-01-08T23:04:08.810Z,22.95
2023-01-08T23:06:39.288Z,22.93
2023-01-08T23:09:09.676Z,22.90
2023-01-08T23:11:39.624Z,22.87
2023-01-08T23:14:16.099Z,22.85
2023-01-08T23:16:46.819Z,22.84
2023-01-08T23:19:17.334Z,22.83
2023-01-08T23:21:47.782Z,22.83
2023-01-08T23:24:18.222Z,22.85
2023-01-08T23:26:49.179Z,22.83
2023-01-08T23:29:21.108Z,22.82
2023-01-08T23:31:52.232Z,22.80
2023-01-08T23:34:22.249Z,22.77
2023-01-08T23:36:52.989Z,22.75
2023-01-08T23:39:24.105Z,22.73
2023-01-08T23:41:55.019Z,22.73
2023-01-08T23:44:26.948Z,22.74
2023-01-08T23:46:58.180Z,22.74
2023-01-08T23:49:28.287Z,22.76
2023-01-08T23:51:58.851Z,22.76
2023-01-08T23:54:29.241Z,22.78
2023-01-08T23:56:59.658Z,22.78
2023-01-08T23:59:32.402Z,22.77
